createdAt,value
2023-03-06T00:00:18.314Z,1116.00
2023-03-06T00:01:18.285Z,1105.00
2023-03-06T00:02:18.257Z,1098.00
2023-03-06T00:03:18.258Z,1093.00
2023-03-06T00:04:18.237Z,1094.00
2023-03-06T00:05:18.229Z,1092.00
2023-03-06T00:06:18.236Z,1096.00
2023-03-06T00:07:18.206Z,1099.00
2023-03-06T00:08:18.214Z,1098.00
2023-03-06T00:09:18.183Z,1097.00
2023-03-06T00:10:18.186Z,1092.00
2023-03-06T00:11:18.179Z,1093.00
2023-03-06T00:12:18.153Z,1096.00
2023-03-06T00:13:18.157Z,1095.00
2023-03-06T00:14:18.150Z,1093.00
2023-03-06T00:15:18.109Z,1097.00
2023-03-06T00:16:18.139Z,1093.00
2023-03-06T00:17:18.126Z,1091.00
2023-03-06T00:18:18.125Z,1093.00
2023-03-06T00:19:18.077Z,1093.00
2023-03-06T00:20:18.066Z,1090.00
2023-03-06T00:21:18.067Z,1087.00
2023-03-06T00:22:18.069Z,1085.00
2023-03-06T00:23:18.061Z,1085.00
2023-03-06T00:24:18.026Z,1085.00
2023-03-06T00:25:18.038Z,1088.00
2023-03-06T00:26:17.988Z,1088.00
2023-03-06T00:27:18.004Z,1093.00
2023-03-06T00:28:17.997Z,1090.00
2023-03-06T00:29:17.986Z,1087.00
2023-03-06T00:30:17.994Z,1086.00
2023-03-06T00:31:17.979Z,1083.00
2023-03-06T00:32:17.978Z,1081.00
2023-03-06T00:33:17.952Z,1081.00
2023-03-06T00:34:17.918Z,1085.00
2023-03-06T00:35:17.948Z,1088.00
2023-03-06T00:36:17.893Z,1089.00
2023-03-06T00:37:17.873Z,1087.00
2023-03-06T00:38:17.880Z,1087.00
2023-03-06T00:39:17.871Z,1086.00
2023-03-06T00:40:17.842Z,1088.00
2023-03-06T00:41:17.842Z,1082.00
2023-03-06T00:42:17.828Z,1080.00
2023-03-06T00:43:17.850Z,1084.00
2023-03-06T00:44:17.793Z,1083.00
2023-03-06T00:45:17.817Z,1079.00
2023-03-06T00:46:17.789Z,1074.00
2023-03-06T00:47:17.797Z,1074.00
2023-03-06T00:48:17.824Z,1073.00
2023-03-06T00:49:17.753Z,1072.00
2023-03-06T00:50:17.742Z,1075.00
2023-03-06T00:51:17.735Z,1077.00
2023-03-06T00:52:17.705Z,1073.00
2023-03-06T00:53:17.713Z,1073.00
2023-03-06T00:54:17.712Z,1076.00
2023-03-06T00:55:17.685Z,1073.00
2023-03-06T00:56:19.856Z,1070.00
2023-03-06T00:57:17.688Z,1068.00
2023-03-06T00:58:17.664Z,1069.00
2023-03-06T00:59:17.661Z,1074.00
2023-03-06T01:00:17.625Z,1074.00
2023-03-06T01:01:17.766Z,1072.00
2023-03-06T01:02:17.672Z,1071.00
2023-03-06T01:03:17.606Z,1070.00
2023-03-06T01:04:17.612Z,1071.00
2023-03-06T01:05:17.599Z,1072.00
2023-03-06T01:06:17.576Z,1069.00
2023-03-06T01:07:17.547Z,1069.00
2023-03-06T01:08:17.553Z,1067.00
2023-03-06T01:09:17.555Z,1062.00
2023-03-06T01:10:17.561Z,1061.00
2023-03-06T01:11:17.514Z,1063.00
2023-03-06T01:12:17.535Z,1061.00
2023-03-06T01:13:17.503Z,1061.00
2023-03-06T01:14:17.500Z,1058.00
2023-03-06T01:15:17.468Z,1055.00
2023-03-06T01:16:17.509Z,1057.00
2023-03-06T01:17:17.497Z,1056.00
2023-03-06T01:18:17.436Z,1051.00
2023-03-06T01:19:17.425Z,1048.00
2023-03-06T01:20:17.421Z,1050.00
2023-03-06T01:21:17.416Z,1047.00
2023-03-06T01:22:17.400Z,1046.00
2023-03-06T01:23:17.391Z,1043.00
2023-03-06T01:24:17.360Z,1044.00
2023-03-06T01:25:17.369Z,1041.00
2023-03-06T01:26:17.351Z,1037.00
2023-03-06T01:27:17.362Z,1039.00
2023-03-06T01:28:17.318Z,1035.00
2023-03-06T01:29:17.330Z,1032.00
2023-03-06T01:30:17.303Z,1033.00
2023-03-06T01:31:17.344Z,1033.00
2023-03-06T01:32:17.328Z,1035.00
2023-03-06T01:33:17.274Z,1033.00
2023-03-06T01:34:17.252Z,1032.00
2023-03-06T01:35:17.376Z,1031.00
2023-03-06T01:36:17.247Z,1032.00
2023-03-06T01:37:17.236Z,1033.00
2023-03-06T01:38:17.232Z,1026.00
2023-03-06T01:39:17.208Z,1027.00
2023-03-06T01:40:17.224Z,1024.00
2023-03-06T01:41:17.187Z,1023.00
2023-03-06T01:42:17.172Z,1020.00
2023-03-06T01:43:17.164Z,1021.00
2023-03-06T01:44:17.150Z,1022.00
2023-03-06T01:45:17.178Z,1023.00
2023-03-06T01:46:17.157Z,1027.00
2023-03-06T01:47:17.123Z,1025.00
2023-03-06T01:48:17.131Z,1025.00
2023-03-06T01:49:17.126Z,1029.00
2023-03-06T01:50:17.080Z,1033.00
2023-03-06T01:51:17.102Z,1035.00
2023-03-06T01:52:17.079Z,1029.00
2023-03-06T01:53:17.097Z,1023.00
2023-03-06T01:54:17.045Z,1026.00
2023-03-06T01:55:17.078Z,1030.00
2023-03-06T01:56:17.035Z,1033.00
2023-03-06T01:57:17.035Z,1035.00
2023-03-06T01:58:17.034Z,1031.00
2023-03-06T01:59:17.003Z,1030.00
2023-03-06T02:00:16.982Z,1027.00
2023-03-06T02:01:17.019Z,1030.00
2023-03-06T02:02:16.998Z,1033.00
2023-03-06T02:03:16.978Z,1033.00
2023-03-06T02:04:16.945Z,1033.00
2023-03-06T02:05:16.961Z,1031.00
2023-03-06T02:06:16.917Z,1025.00
2023-03-06T02:07:16.937Z,1023.00
2023-03-06T02:08:16.950Z,1022.00
2023-03-06T02:09:16.922Z,1023.00
2023-03-06T02:10:16.934Z,1019.00
2023-03-06T02:11:16.912Z,1012.00
2023-03-06T02:12:16.852Z,1011.00
2023-03-06T02:13:16.866Z,1013.00
2023-03-06T02:14:16.848Z,1012.00
2023-03-06T02:15:16.826Z,1009.00
2023-03-06T02:16:16.817Z,1015.00
2023-03-06T02:17:16.846Z,1011.00
2023-03-06T02:18:16.830Z,1011.00
2023-03-06T02:19:16.775Z,1011.00
2023-03-06T02:20:16.766Z,1013.00
2023-03-06T02:21:16.775Z,1006.00
2023-03-06T02:22:16.784Z,1006.00
2023-03-06T02:23:16.786Z,1007.00
2023-03-06T02:24:16.752Z,1006.00
2023-03-06T02:25:16.735Z,1006.00
2023-03-06T02:26:16.741Z,1006.00
2023-03-06T02:27:16.693Z,999.00
2023-03-06T02:28:16.702Z,996.00
2023-03-06T02:29:16.704Z,995.00
2023-03-06T02:30:16.659Z,999.00
2023-03-06T02:31:16.714Z,999.00
2023-03-06T02:32:16.678Z,995.00
2023-03-06T02:33:16.644Z,994.00
2023-03-06T02:34:16.639Z,993.00
2023-03-06T02:35:16.644Z,990.00
2023-03-06T02:36:16.606Z,988.00
2023-03-06T02:37:16.589Z,993.00
2023-03-06T02:38:16.584Z,991.00
2023-03-06T02:39:16.585Z,989.00
2023-03-06T02:40:16.567Z,986.00
2023-03-06T02:41:16.550Z,985.00
2023-03-06T02:42:16.554Z,983.00
2023-03-06T02:43:16.536Z,982.00
2023-03-06T02:44:16.538Z,986.00
2023-03-06T02:45:16.514Z,990.00
2023-03-06T02:46:16.579Z,993.00
2023-03-06T02:47:16.489Z,992.00
2023-03-06T02:48:16.474Z,992.00
2023-03-06T02:49:16.474Z,991.00
2023-03-06T02:50:16.463Z,986.00
2023-03-06T02:51:16.437Z,984.00
2023-03-06T02:52:16.434Z,983.00
2023-03-06T02:53:16.443Z,980.00
2023-03-06T02:54:16.408Z,981.00
2023-03-06T02:55:16.390Z,981.00
2023-03-06T02:56:16.377Z,983.00
2023-03-06T02:57:16.380Z,983.00
2023-03-06T02:58:16.351Z,981.00
2023-03-06T02:59:16.362Z,981.00
2023-03-06T03:00:16.325Z,982.00
2023-03-06T03:01:16.361Z,978.00
2023-03-06T03:02:16.309Z,980.00
2023-03-06T03:03:16.314Z,982.00
2023-03-06T03:04:16.383Z,982.00
2023-03-06T03:05:16.283Z,976.00
2023-03-06T03:06:16.298Z,974.00
2023-03-06T03:07:16.278Z,974.00
2023-03-06T03:08:16.258Z,974.00
2023-03-06T03:09:16.239Z,972.00
2023-03-06T03:10:16.226Z,976.00
2023-03-06T03:11:16.214Z,978.00
2023-03-06T03:12:16.232Z,979.00
2023-03-06T03:13:16.213Z,978.00
2023-03-06T03:14:16.223Z,975.00
2023-03-06T03:15:16.180Z,973.00
2023-03-06T03:16:16.268Z,967.00
2023-03-06T03:17:16.162Z,964.00
2023-03-06T03:18:16.135Z,962.00
2023-03-06T03:19:16.163Z,966.00
2023-03-06T03:20:16.114Z,968.00
2023-03-06T03:21:16.137Z,969.00
2023-03-06T03:22:16.099Z,967.00
2023-03-06T03:23:16.084Z,965.00
2023-03-06T03:24:16.100Z,966.00
2023-03-06T03:25:16.081Z,966.00
2023-03-06T03:26:16.074Z,967.00
2023-03-06T03:27:16.072Z,966.00
2023-03-06T03:28:16.075Z,966.00
2023-03-06T03:29:16.026Z,966.00
2023-03-06T03:30:16.014Z,960.00
2023-03-06T03:31:16.063Z,958.00
2023-03-06T03:32:16.016Z,958.00
2023-03-06T03:33:16.037Z,958.00
2023-03-06T03:34:15.979Z,958.00
2023-03-06T03:35:15.977Z,960.00
2023-03-06T03:36:15.966Z,959.00
2023-03-06T03:37:15.954Z,958.00
2023-03-06T03:38:15.938Z,956.00
2023-03-06T03:39:15.929Z,957.00
2023-03-06T03:40:15.905Z,955.00
2023-03-06T03:41:15.910Z,955.00
2023-03-06T03:42:15.880Z,957.00
2023-03-06T03:43:15.921Z,954.00
2023-03-06T03:44:15.895Z,950.00
2023-03-06T03:45:15.861Z,948.00
2023-03-06T03:46:15.865Z,948.00
2023-03-06T03:47:15.833Z,950.00
2023-03-06T03:48:15.818Z,950.00
2023-03-06T03:49:15.833Z,954.00
2023-03-06T03:50:15.800Z,951.00
2023-03-06T03:51:15.799Z,947.00
2023-03-06T03:52:15.770Z,950.00
2023-03-06T03:53:15.760Z,954.00
2023-03-06T03:54:15.784Z,951.00
2023-03-06T03:55:15.771Z,953.00
2023-03-06T03:56:15.734Z,951.00
2023-03-06T03:57:15.726Z,949.00
2023-03-06T03:58:15.730Z,952.00
2023-03-06T03:59:15.720Z,951.00
2023-03-06T04:00:15.690Z,953.00
2023-03-06T04:01:15.696Z,955.00
2023-03-06T04:02:15.743Z,953.00
2023-03-06T04:03:15.660Z,955.00
2023-03-06T04:04:15.660Z,953.00
2023-03-06T04:05:15.633Z,955.00
2023-03-06T04:06:15.662Z,957.00
2023-03-06T04:07:15.632Z,956.00
2023-03-06T04:08:15.625Z,955.00
2023-03-06T04:09:15.587Z,955.00
2023-03-06T04:10:15.576Z,956.00
2023-03-06T04:11:15.566Z,956.00
2023-03-06T04:12:15.564Z,950.00
2023-03-06T04:13:15.575Z,949.00
2023-03-06T04:14:15.537Z,948.00
2023-03-06T04:15:15.553Z,947.00
2023-03-06T04:16:15.551Z,949.00
2023-03-06T04:17:15.526Z,944.00
2023-03-06T04:18:15.499Z,943.00
2023-03-06T04:19:15.516Z,940.00
2023-03-06T04:20:15.466Z,942.00
2023-03-06T04:21:15.463Z,948.00
2023-03-06T04:22:15.458Z,946.00
2023-03-06T04:23:15.467Z,940.00
2023-03-06T04:24:15.444Z,940.00
2023-03-06T04:25:15.480Z,937.00
2023-03-06T04:26:15.445Z,933.00
2023-03-06T04:27:15.402Z,940.00
2023-03-06T04:28:15.386Z,936.00
2023-03-06T04:29:15.394Z,937.00
2023-03-06T04:30:15.384Z,936.00
2023-03-06T04:31:15.400Z,934.00
2023-03-06T04:32:15.387Z,936.00
2023-03-06T04:33:15.328Z,934.00
2023-03-06T04:34:15.327Z,932.00
2023-03-06T04:35:15.334Z,931.00
2023-03-06T04:36:15.319Z,933.00
2023-03-06T04:37:15.300Z,938.00
2023-03-06T04:38:15.309Z,941.00
2023-03-06T04:39:15.266Z,939.00
2023-03-06T04:40:15.262Z,937.00
2023-03-06T04:41:15.253Z,932.00
2023-03-06T04:42:15.249Z,932.00
2023-03-06T04:43:15.271Z,931.00
2023-03-06T04:44:15.223Z,931.00
2023-03-06T04:45:15.206Z,928.00
2023-03-06T04:46:15.198Z,926.00
2023-03-06T04:47:16.135Z,928.00
2023-03-06T04:48:15.209Z,931.00
2023-03-06T04:49:15.175Z,928.00
2023-03-06T04:50:15.169Z,927.00
2023-03-06T04:51:15.146Z,927.00
2023-03-06T04:52:15.134Z,926.00
2023-03-06T04:53:15.147Z,921.00
2023-03-06T04:54:15.117Z,921.00
2023-03-06T04:55:15.096Z,922.00
2023-03-06T04:56:15.124Z,919.00
2023-03-06T04:57:15.091Z,923.00
2023-03-06T04:58:15.089Z,924.00
2023-03-06T04:59:15.065Z,927.00
2023-03-06T05:00:15.073Z,924.00
2023-03-06T05:01:15.046Z,925.00
2023-03-06T05:02:15.122Z,922.00
2023-03-06T05:03:15.010Z,920.00
2023-03-06T05:04:15.011Z,919.00
2023-03-06T05:05:14.989Z,919.00
2023-03-06T05:06:15.005Z,917.00
2023-03-06T05:07:14.966Z,913.00
2023-03-06T05:08:14.955Z,910.00
2023-03-06T05:09:14.960Z,911.00
2023-03-06T05:10:14.955Z,909.00
2023-03-06T05:11:14.927Z,906.00
2023-03-06T05:12:14.918Z,907.00
2023-03-06T05:13:14.908Z,904.00
2023-03-06T05:14:14.909Z,907.00
2023-03-06T05:15:14.871Z,909.00
2023-03-06T05:16:14.906Z,910.00
2023-03-06T05:17:14.848Z,908.00
2023-03-06T05:18:14.850Z,908.00
2023-03-06T05:19:15.294Z,909.00
2023-03-06T05:20:14.829Z,910.00
2023-03-06T05:21:14.809Z,912.00
2023-03-06T05:22:14.812Z,909.00
2023-03-06T05:23:14.780Z,905.00
2023-03-06T05:24:14.808Z,905.00
2023-03-06T05:25:14.767Z,905.00
2023-03-06T05:26:14.766Z,905.00
2023-03-06T05:27:16.872Z,906.00
2023-03-06T05:28:14.762Z,907.00
2023-03-06T05:29:14.764Z,903.00
2023-03-06T05:30:14.713Z,899.00
2023-03-06T05:31:14.694Z,899.00
2023-03-06T05:32:14.787Z,902.00
2023-03-06T05:33:14.687Z,903.00
2023-03-06T05:34:14.697Z,902.00
2023-03-06T05:35:14.700Z,902.00
2023-03-06T05:36:14.662Z,902.00
2023-03-06T05:37:14.651Z,903.00
2023-03-06T05:38:14.634Z,905.00
2023-03-06T05:39:14.657Z,908.00
2023-03-06T05:40:14.636Z,904.00
2023-03-06T05:41:14.614Z,906.00
2023-03-06T05:42:14.591Z,903.00
2023-03-06T05:43:14.603Z,901.00
2023-03-06T05:44:14.600Z,901.00
2023-03-06T05:45:14.578Z,898.00
2023-03-06T05:46:14.597Z,899.00
2023-03-06T05:47:14.533Z,893.00
2023-03-06T05:48:14.565Z,891.00
2023-03-06T05:49:14.522Z,887.00
2023-03-06T05:50:14.534Z,887.00
2023-03-06T05:51:14.500Z,891.00
2023-03-06T05:52:14.487Z,893.00
2023-03-06T05:53:14.501Z,894.00
2023-03-06T05:54:14.463Z,896.00
2023-03-06T05:55:14.468Z,894.00
2023-03-06T05:56:14.464Z,890.00
2023-03-06T05:57:14.445Z,892.00
2023-03-06T05:58:14.461Z,893.00
2023-03-06T05:59:14.413Z,892.00
2023-03-06T06:00:14.427Z,895.00
2023-03-06T06:01:14.398Z,896.00
2023-03-06T06:02:14.452Z,896.00
2023-03-06T06:03:14.395Z,897.00
2023-03-06T06:04:14.375Z,898.00
2023-03-06T06:05:14.341Z,897.00
2023-03-06T06:06:14.330Z,896.00
2023-03-06T06:07:14.371Z,894.00
2023-03-06T06:08:14.302Z,893.00
2023-03-06T06:09:14.305Z,891.00
2023-03-06T06:10:14.305Z,894.00
2023-03-06T06:11:14.270Z,894.00
2023-03-06T06:12:14.277Z,890.00
2023-03-06T06:13:14.256Z,884.00
2023-03-06T06:14:14.248Z,883.00
2023-03-06T06:15:14.219Z,885.00
2023-03-06T06:16:14.318Z,885.00
2023-03-06T06:17:14.224Z,885.00
2023-03-06T06:18:14.198Z,888.00
2023-03-06T06:19:14.203Z,884.00
2023-03-06T06:20:14.175Z,884.00
2023-03-06T06:21:14.160Z,882.00
2023-03-06T06:22:14.186Z,880.00
2023-03-06T06:23:14.135Z,878.00
2023-03-06T06:24:14.137Z,879.00
2023-03-06T06:25:14.123Z,881.00
2023-03-06T06:26:14.111Z,880.00
2023-03-06T06:27:14.126Z,877.00
2023-03-06T06:28:14.106Z,880.00
2023-03-06T06:29:14.102Z,884.00
2023-03-06T06:30:14.073Z,879.00
2023-03-06T06:31:14.116Z,878.00
2023-03-06T06:32:14.063Z,882.00
2023-03-06T06:33:14.057Z,883.00
2023-03-06T06:34:14.044Z,882.00
2023-03-06T06:35:14.018Z,881.00
2023-03-06T06:36:14.004Z,878.00
2023-03-06T06:37:14.001Z,872.00
2023-03-06T06:38:14.012Z,869.00
2023-03-06T06:39:13.998Z,865.00
2023-03-06T06:40:14.011Z,867.00
2023-03-06T06:42:31.967Z,873.00
2023-03-06T06:43:13.934Z,873.00
2023-03-06T06:44:13.929Z,871.00
2023-03-06T06:45:13.912Z,869.00
2023-03-06T06:46:47.174Z,868.00
2023-03-06T06:47:23.671Z,863.00
2023-03-06T06:48:16.082Z,862.00
2023-03-06T06:49:13.877Z,864.00
2023-03-06T06:50:13.885Z,865.00
2023-03-06T06:51:13.842Z,866.00
2023-03-06T06:52:13.845Z,868.00
2023-03-06T06:53:13.814Z,870.00
2023-03-06T06:54:13.829Z,864.00
2023-03-06T06:55:13.818Z,862.00
2023-03-06T06:56:13.817Z,859.00
2023-03-06T06:57:13.801Z,858.00
2023-03-06T06:58:13.810Z,859.00
2023-03-06T06:59:16.929Z,859.00
2023-03-06T07:00:13.792Z,856.00
2023-03-06T07:01:13.858Z,856.00
2023-03-06T07:02:13.771Z,859.00
2023-03-06T07:03:13.715Z,859.00
2023-03-06T07:04:13.796Z,856.00
2023-03-06T07:05:13.712Z,855.00
2023-03-06T07:06:13.692Z,858.00
2023-03-06T07:07:13.686Z,859.00
2023-03-06T07:08:13.689Z,855.00
2023-03-06T07:09:13.652Z,857.00
2023-03-06T07:10:13.695Z,858.00
2023-03-06T07:11:13.959Z,855.00
2023-03-06T07:12:13.628Z,854.00
2023-03-06T07:13:13.614Z,854.00
2023-03-06T07:14:13.610Z,859.00
2023-03-06T07:15:13.589Z,864.00
2023-03-06T07:16:13.644Z,866.00
2023-03-06T07:17:13.577Z,865.00
2023-03-06T07:18:13.567Z,859.00
2023-03-06T07:19:13.653Z,859.00
2023-03-06T07:20:13.538Z,860.00
2023-03-06T07:21:13.534Z,857.00
2023-03-06T07:22:13.521Z,854.00
2023-03-06T07:23:13.504Z,853.00
2023-03-06T07:24:13.505Z,855.00
2023-03-06T07:25:13.479Z,855.00
2023-03-06T07:26:13.459Z,856.00
2023-03-06T07:27:13.491Z,858.00
2023-03-06T07:28:13.458Z,858.00
2023-03-06T07:29:13.454Z,855.00
2023-03-06T07:30:13.424Z,855.00
2023-03-06T07:31:13.475Z,855.00
2023-03-06T07:32:13.468Z,857.00
2023-03-06T07:33:13.417Z,856.00
2023-03-06T07:34:13.385Z,854.00
2023-03-06T07:35:29.417Z,852.00
2023-03-06T07:36:14.023Z,851.00
2023-03-06T07:37:13.357Z,851.00
2023-03-06T07:38:13.375Z,854.00
2023-03-06T07:39:13.339Z,854.00
2023-03-06T07:40:13.348Z,860.00
2023-03-06T07:41:13.365Z,862.00
2023-03-06T07:42:13.345Z,861.00
2023-03-06T07:43:19.309Z,856.00
2023-03-06T07:44:13.235Z,850.00
2023-03-06T07:45:13.210Z,848.00
2023-03-06T07:46:13.328Z,852.00
2023-03-06T07:47:13.218Z,852.00
2023-03-06T07:48:13.190Z,858.00
2023-03-06T07:50:31.247Z,855.00
2023-03-06T07:53:10.156Z,773.00
2023-03-06T07:54:09.459Z,764.00
2023-03-06T07:55:09.433Z,761.00
2023-03-06T07:56:09.533Z,763.00
2023-03-06T07:58:43.699Z,736.00
2023-03-06T07:59:44.657Z,734.00
2023-03-06T08:00:44.687Z,731.00
2023-03-06T08:01:44.652Z,730.00
2023-03-06T08:02:53.097Z,721.00
2023-03-06T08:05:00.628Z,752.00
2023-03-06T08:06:02.534Z,721.00
2023-03-06T08:07:01.576Z,708.00
2023-03-06T08:09:17.590Z,713.00
2023-03-06T08:10:18.592Z,685.00
2023-03-06T08:11:18.603Z,680.00
2023-03-06T08:12:18.569Z,675.00
2023-03-06T08:13:18.514Z,675.00
2023-03-06T08:14:18.547Z,673.00
2023-03-06T08:15:18.492Z,672.00
2023-03-06T08:16:18.535Z,674.00
2023-03-06T08:17:18.619Z,686.00
2023-03-06T08:18:18.557Z,699.00
2023-03-06T08:19:18.480Z,715.00
2023-03-06T08:20:18.471Z,725.00
2023-03-06T08:21:18.434Z,733.00
2023-03-06T08:22:18.529Z,734.00
2023-03-06T08:23:18.442Z,733.00
2023-03-06T08:24:18.425Z,738.00
2023-03-06T08:25:18.404Z,738.00
2023-03-06T08:26:18.409Z,742.00
2023-03-06T08:27:18.381Z,740.00
2023-03-06T08:28:18.361Z,741.00
2023-03-06T08:29:18.372Z,739.00
2023-03-06T08:30:18.366Z,742.00
2023-03-06T08:31:18.423Z,744.00
2023-03-06T08:32:18.365Z,746.00
2023-03-06T08:33:18.326Z,745.00
2023-03-06T08:34:18.300Z,745.00
2023-03-06T08:35:18.290Z,744.00
2023-03-06T08:36:18.306Z,748.00
2023-03-06T08:37:18.316Z,752.00
2023-03-06T08:38:18.288Z,756.00
2023-03-06T08:39:18.248Z,760.00
2023-03-06T08:40:18.256Z,764.00
2023-03-06T08:41:18.481Z,771.00
2023-03-06T08:42:18.239Z,776.00
2023-03-06T08:43:18.237Z,776.00
2023-03-06T08:44:18.198Z,776.00
2023-03-06T08:45:18.213Z,774.00
2023-03-06T08:46:18.180Z,776.00
2023-03-06T08:47:18.176Z,775.00
2023-03-06T08:48:18.188Z,774.00
2023-03-06T08:49:18.128Z,778.00
2023-03-06T08:50:18.143Z,780.00
2023-03-06T08:51:18.138Z,784.00
2023-03-06T08:52:18.129Z,789.00
2023-03-06T08:53:18.133Z,792.00
2023-03-06T08:54:18.113Z,794.00
2023-03-06T08:55:18.092Z,793.00
2023-03-06T08:56:18.066Z,794.00
2023-03-06T08:57:18.054Z,798.00
2023-03-06T08:58:18.061Z,799.00
2023-03-06T08:59:18.115Z,800.00
2023-03-06T09:00:18.119Z,803.00
2023-03-06T09:01:18.129Z,806.00
2023-03-06T09:02:18.078Z,807.00
2023-03-06T09:03:18.007Z,809.00
2023-03-06T09:04:17.981Z,808.00
2023-03-06T09:05:17.960Z,809.00
2023-03-06T09:06:17.969Z,811.00
2023-03-06T09:07:17.924Z,814.00
2023-03-06T09:08:18.033Z,818.00
2023-03-06T09:09:17.912Z,827.00
2023-03-06T09:10:17.989Z,825.00
2023-03-06T09:11:17.893Z,815.00
2023-03-06T09:12:17.913Z,803.00
2023-03-06T09:13:17.880Z,791.00
2023-03-06T09:14:17.869Z,782.00
2023-03-06T09:15:17.886Z,782.00
2023-03-06T09:16:17.941Z,787.00
2023-03-06T09:17:17.899Z,778.00
2023-03-06T09:18:17.868Z,774.00
2023-03-06T09:19:17.874Z,767.00
2023-03-06T09:20:17.817Z,745.00
2023-03-06T09:21:17.804Z,744.00
2023-03-06T09:22:17.784Z,742.00
2023-03-06T09:23:17.811Z,739.00
2023-03-06T09:24:17.774Z,736.00
2023-03-06T09:25:17.744Z,738.00
2023-03-06T09:26:17.774Z,736.00
2023-03-06T09:27:17.730Z,732.00
2023-03-06T09:28:17.780Z,728.00
2023-03-06T09:29:17.726Z,724.00
2023-03-06T09:30:18.180Z,721.00
2023-03-06T09:31:17.777Z,718.00
2023-03-06T09:32:17.725Z,715.00
2023-03-06T09:33:17.677Z,710.00
2023-03-06T09:34:17.697Z,706.00
2023-03-06T09:35:17.674Z,702.00
2023-03-06T09:36:17.635Z,701.00
2023-03-06T09:37:17.636Z,697.00
2023-03-06T09:38:17.642Z,693.00
2023-03-06T09:39:26.213Z,687.00
2023-03-06T09:40:17.588Z,686.00
2023-03-06T09:41:17.573Z,683.00
2023-03-06T09:42:17.582Z,683.00
2023-03-06T09:43:17.552Z,681.00
2023-03-06T09:44:17.564Z,679.00
2023-03-06T09:45:17.551Z,679.00
2023-03-06T09:46:17.567Z,677.00
2023-03-06T09:47:17.570Z,673.00
2023-03-06T09:48:17.568Z,672.00
2023-03-06T09:49:17.531Z,666.00
2023-03-06T09:50:17.509Z,663.00
2023-03-06T09:51:17.474Z,661.00
2023-03-06T09:52:17.507Z,661.00
2023-03-06T09:53:17.493Z,661.00
2023-03-06T09:56:17.597Z,636.00
2023-03-06T09:58:36.224Z,602.00
2023-03-06T10:02:10.799Z,642.00
2023-03-06T10:04:28.824Z,649.00
2023-03-06T10:05:29.758Z,627.00
2023-03-06T10:06:29.733Z,625.00
2023-03-06T10:07:29.730Z,623.00
2023-03-06T10:08:37.805Z,623.00
2023-03-06T10:09:29.713Z,627.00
2023-03-06T10:10:29.736Z,627.00
2023-03-06T10:11:29.720Z,623.00
2023-03-06T10:12:29.673Z,619.00
2023-03-06T10:13:29.681Z,619.00
2023-03-06T10:14:29.686Z,618.00
2023-03-06T10:15:29.720Z,616.00
2023-03-06T10:16:29.657Z,611.00
2023-03-06T10:17:29.662Z,610.00
2023-03-06T10:18:29.607Z,608.00
2023-03-06T10:19:29.593Z,605.00
2023-03-06T10:20:29.603Z,608.00
2023-03-06T10:21:37.178Z,607.00
2023-03-06T10:22:29.589Z,610.00
2023-03-06T10:23:29.555Z,610.00
2023-03-06T10:24:29.591Z,614.00
2023-03-06T10:25:35.564Z,612.00
2023-03-06T10:26:29.605Z,611.00
2023-03-06T10:28:57.975Z,617.00
2023-03-06T10:30:03.138Z,606.00
2023-03-06T10:30:59.016Z,607.00
2023-03-06T10:31:58.939Z,607.00
2023-03-06T10:33:08.161Z,609.00
2023-03-06T10:34:06.626Z,608.00
2023-03-06T10:34:58.907Z,609.00
2023-03-06T10:37:48.744Z,618.00
2023-03-06T10:38:57.026Z,615.00
2023-03-06T10:39:56.563Z,615.00
2023-03-06T10:43:11.516Z,613.00
2023-03-06T10:45:58.795Z,607.00
2023-03-06T10:49:19.192Z,613.00
2023-03-06T10:50:20.256Z,614.00
2023-03-06T10:51:20.149Z,617.00
2023-03-06T10:53:39.404Z,609.00
2023-03-06T10:55:57.403Z,621.00
2023-03-06T10:57:05.960Z,607.00
2023-03-06T10:58:05.171Z,611.00
2023-03-06T11:00:40.707Z,623.00
2023-03-06T11:01:50.531Z,611.00
2023-03-06T11:02:41.665Z,609.00
2023-03-06T11:08:59.719Z,655.00
2023-03-06T11:13:33.543Z,687.00
2023-03-06T11:19:12.390Z,693.00
2023-03-06T11:22:13.108Z,714.00
2023-03-06T11:23:14.083Z,719.00
2023-03-06T11:25:30.121Z,785.00
2023-03-06T11:26:31.033Z,758.00
2023-03-06T11:28:47.166Z,815.00
2023-03-06T11:31:05.114Z,788.00
2023-03-06T11:32:06.127Z,813.00
2023-03-06T11:33:13.233Z,839.00
2023-03-06T11:34:12.605Z,875.00
2023-03-06T11:35:13.628Z,884.00
2023-03-06T11:36:05.995Z,915.00
2023-03-06T11:37:06.005Z,933.00
2023-03-06T11:38:15.148Z,940.00
2023-03-06T11:39:05.954Z,965.00
2023-03-06T11:40:06.004Z,961.00
2023-03-06T11:41:05.978Z,1090.00
2023-03-06T11:42:05.938Z,1221.00
2023-03-06T11:43:05.928Z,1138.00
2023-03-06T11:44:05.958Z,1085.00
2023-03-06T11:45:05.950Z,1015.00
2023-03-06T11:46:05.885Z,990.00
2023-03-06T11:47:05.873Z,981.00
2023-03-06T11:48:05.874Z,981.00
2023-03-06T11:49:05.849Z,971.00
2023-03-06T11:50:05.832Z,954.00
2023-03-06T11:51:06.593Z,924.00
2023-03-06T11:52:05.840Z,864.00
2023-03-06T11:53:05.820Z,859.00
2023-03-06T11:54:05.819Z,856.00
2023-03-06T11:55:12.830Z,845.00
2023-03-06T11:56:05.786Z,843.00
2023-03-06T11:57:05.779Z,827.00
2023-03-06T11:58:05.743Z,785.00
2023-03-06T11:59:05.784Z,750.00
2023-03-06T12:00:05.743Z,725.00
2023-03-06T12:01:05.766Z,717.00
2023-03-06T12:02:13.798Z,711.00
2023-03-06T12:03:05.711Z,709.00
2023-03-06T12:04:05.711Z,717.00
2023-03-06T12:05:05.809Z,719.00
2023-03-06T12:06:05.658Z,721.00
2023-03-06T12:07:07.627Z,722.00
2023-03-06T12:08:05.660Z,718.00
2023-03-06T12:09:05.677Z,715.00
2023-03-06T12:11:05.613Z,705.00
2023-03-06T12:12:05.621Z,708.00
2023-03-06T12:13:05.725Z,704.00
2023-03-06T12:14:05.568Z,704.00
2023-03-06T12:15:05.587Z,700.00
2023-03-06T12:16:14.743Z,706.00
2023-03-06T12:17:05.554Z,704.00
2023-03-06T12:18:05.550Z,701.00
2023-03-06T12:19:05.570Z,700.00
2023-03-06T12:20:05.529Z,704.00
2023-03-06T12:21:05.494Z,705.00
2023-03-06T12:22:05.529Z,703.00
2023-03-06T12:23:15.050Z,702.00
2023-03-06T12:24:05.508Z,700.00
2023-03-06T12:25:05.470Z,703.00
2023-03-06T12:26:12.259Z,705.00
2023-03-06T12:27:13.235Z,703.00
2023-03-06T12:28:05.434Z,706.00
2023-03-06T12:29:05.428Z,709.00
2023-03-06T12:30:05.488Z,708.00
2023-03-06T12:31:05.391Z,705.00
2023-03-06T12:32:05.598Z,704.00
2023-03-06T12:34:23.117Z,704.00
2023-03-06T12:35:24.121Z,701.00
2023-03-06T12:36:24.054Z,704.00
2023-03-06T12:37:31.290Z,707.00
2023-03-06T12:38:24.038Z,704.00
2023-03-06T12:39:24.040Z,703.00
2023-03-06T12:40:32.966Z,703.00
2023-03-06T12:41:24.011Z,706.00
2023-03-06T13:12:31.691Z,663.00
2023-03-06T13:21:37.514Z,604.00
2023-03-06T13:28:48.654Z,604.00
2023-03-06T13:29:56.025Z,587.00
2023-03-06T13:30:55.820Z,582.00
2023-03-06T13:31:54.974Z,582.00
2023-03-06T13:32:56.834Z,582.00
2023-03-06T13:33:48.920Z,581.00
2023-03-06T13:34:48.889Z,581.00
2023-03-06T13:35:49.069Z,581.00
2023-03-06T13:36:54.904Z,579.00
2023-03-06T13:37:55.874Z,574.00
2023-03-06T13:38:48.908Z,570.00
2023-03-06T13:41:05.898Z,594.00
2023-03-06T13:42:06.835Z,566.00
2023-03-06T13:43:06.872Z,562.00
2023-03-06T13:45:22.902Z,567.00
2023-03-06T13:46:23.895Z,566.00
2023-03-06T13:47:29.802Z,563.00
2023-03-06T13:48:43.714Z,562.00
2023-03-06T13:49:23.782Z,562.00
2023-03-06T13:50:23.757Z,559.00
2023-03-06T13:51:23.754Z,559.00
2023-03-06T13:52:23.758Z,557.00
2023-03-06T13:53:23.729Z,557.00
2023-03-06T13:54:23.825Z,557.00
2023-03-06T13:55:23.702Z,560.00
2023-03-06T13:56:23.692Z,560.00
2023-03-06T13:57:23.689Z,561.00
2023-03-06T13:58:23.673Z,567.00
2023-03-06T13:59:23.668Z,571.00
2023-03-06T14:00:23.680Z,574.00
2023-03-06T14:01:23.739Z,574.00